Orleans, Nebraska
Current Conditions -  °F | °C
As of 11:55 PM on Thursday 27 Nov 2014 (Local Time) from KHDE Reporting Station
Clear Clear  
Wind Chill: 24°   Ceiling: Unl
Heat Index: 31°   Visibility: 10mi
Dew Point: 21°   Wind: 7mph
Humidity: 66%   Direction: 190°S
Pressure: 29.97"   Gusts: NA
Location:  40.13°N, 99.46°W
Report Text: KHDE 280555Z AUTO 19006KT 10SM CLR 00/M06 A2997 RMK AO2 T10051061 10030 21006 400701089
Loading
Personal Weather Stations






























Interactive Weather Map New forecast layout! Learn more

10-Day Weather Forecast

Advertisements
Track Severe Weather on mobile